Preston, Washington
Current Conditions -  °F | °C
As of 1:53 AM on Tuesday 27 Jan 2015 (Local Time) from KRNT Reporting Station
Overcast Overcast  
Wind Chill: 45°   Ceiling: 2000
Heat Index: 47°   Visibility: 10mi
Dew Point: 45°   Wind: 5mph
Humidity: 93%   Direction: 160°SSE
Pressure: 29.99"   Gusts: NA
Location:  47.52°N, 121.93°W
Report Text: KRNT 270953Z AUTO 16004KT 10SM OVC020 08/07 A2999 RMK AO2 SLP160 T00830072
Loading
Personal Weather Stations






























Interactive Weather Map New forecast layout! Learn more

10-Day Weather Forecast

Advertisements
Track Severe Weather on mobile